Time;durP1;ratioP1;P1;durP2;ratioP2;P2;SDS_P1;SDS_P2;PMS_P1;PMS_P2;Temp;Humidity;BMP_temperature;BMP_pressure;BME280_temperature;BME280_humidity;BME280_pressure;Samples;Min_cycle;Max_cycle;Signal;HPM_P1;HPM_P2
2023/09/05 00:01:53;;;;;;;3.55;2.17;;;18.30;99.90;;;;;;5073721;28;20205;-52
2023/09/05 00:04:21;;;;;;;2.55;2.00;;;18.30;99.90;;;;;;5074049;28;20228;-52
2023/09/05 00:06:49;;;;;;;7.60;2.70;;;18.30;99.90;;;;;;5073376;28;20226;-52
2023/09/05 00:09:18;;;;;;;2.38;2.20;;;18.30;99.90;;;;;;5073797;28;20282;-52
2023/09/05 00:11:47;;;;;;;5.30;2.20;;;18.20;99.90;;;;;;5073520;28;20209;-52
2023/09/05 00:14:15;;;;;;;4.15;2.53;;;18.20;99.90;;;;;;5072810;28;20307;-53
2023/09/05 00:16:44;;;;;;;8.70;2.60;;;18.20;99.90;;;;;;5073051;28;20679;-52
2023/09/05 00:19:12;;;;;;;2.83;2.63;;;18.20;99.90;;;;;;5074017;28;20207;-52
2023/09/05 00:21:40;;;;;;;5.30;2.33;;;18.20;99.90;;;;;;5073399;28;20215;-56
2023/09/05 00:24:25;;;;;;;4.80;2.08;;;18.20;99.90;;;;;;5073468;28;20307;-54
2023/09/05 00:26:54;;;;;;;3.72;2.38;;;18.20;99.90;;;;;;5073250;28;20279;-53
2023/09/05 00:29:23;;;;;;;2.33;2.20;;;18.20;99.90;;;;;;5073447;28;20234;-56
2023/09/05 00:31:51;;;;;;;3.75;2.05;;;18.20;99.90;;;;;;5073302;28;20292;-53
2023/09/05 00:34:19;;;;;;;2.55;2.08;;;18.10;99.90;;;;;;5073601;28;20701;-53
2023/09/05 00:36:48;;;;;;;3.38;2.30;;;18.10;99.90;;;;;;5071966;28;20735;-54
2023/09/05 00:39:17;;;;;;;5.10;2.22;;;18.10;99.90;;;;;;5072349;28;20201;-53
2023/09/05 00:41:45;;;;;;;5.03;2.17;;;18.10;99.90;;;;;;5072457;28;20204;-56
2023/09/05 00:44:15;;;;;;;4.82;2.30;;;18.10;99.90;;;;;;5071905;28;20624;-56
2023/09/05 00:46:43;;;;;;;2.55;2.08;;;18.10;99.90;;;;;;5071930;28;20205;-55
2023/09/05 00:49:12;;;;;;;3.53;2.08;;;18.10;99.90;;;;;;5072258;28;20200;-52
2023/09/05 00:51:42;;;;;;;3.40;2.00;;;18.10;99.90;;;;;;5071742;28;20295;-53
2023/09/05 00:54:10;;;;;;;4.57;2.42;;;18.00;99.90;;;;;;5071949;28;20271;-52
2023/09/05 00:56:38;;;;;;;3.08;1.95;;;18.10;99.90;;;;;;5071947;28;20232;-52
2023/09/05 00:59:06;;;;;;;3.15;2.17;;;18.10;99.90;;;;;;5072220;28;20232;-52
2023/09/05 01:01:35;;;;;;;3.00;2.05;;;18.10;99.90;;;;;;5071764;28;20615;-53
2023/09/05 01:04:03;;;;;;;6.63;2.22;;;18.10;99.90;;;;;;5071784;28;20311;-52
2023/09/05 01:06:37;;;;;;;2.95;1.90;;;18.20;99.90;;;;;;5071364;28;20316;-53
2023/09/05 01:09:23;;;;;;;3.13;2.60;;;18.20;99.90;;;;;;5072072;28;20288;-52
2023/09/05 01:11:51;;;;;;;2.38;2.17;;;18.10;99.90;;;;;;5071517;28;20201;-53
2023/09/05 01:14:19;;;;;;;3.55;2.28;;;18.10;99.90;;;;;;5071847;28;20220;-52
2023/09/05 01:16:49;;;;;;;3.30;1.98;;;18.10;99.90;;;;;;5071326;28;20573;-52
2023/09/05 01:19:17;;;;;;;5.03;2.10;;;18.10;99.90;;;;;;5071908;28;20232;-52
2023/09/05 01:21:52;;;;;;;3.65;2.47;;;18.10;99.90;;;;;;5071447;28;20641;-52
2023/09/05 01:24:22;;;;;;;5.78;2.75;;;18.10;99.90;;;;;;5071551;28;20270;-52
2023/09/05 01:26:51;;;;;;;3.38;2.08;;;18.00;99.90;;;;;;5070828;28;20209;-52
2023/09/05 01:29:29;;;;;;;4.30;2.08;;;18.00;99.90;;;;;;5071793;28;20258;-52
2023/09/05 01:31:58;;;;;;;3.22;2.40;;;18.00;99.90;;;;;;5055871;28;20246;-52
2023/09/05 01:34:26;;;;;;;3.58;2.20;;;18.00;99.90;;;;;;5071364;28;20307;-54
2023/09/05 01:36:54;;;;;;;3.80;2.00;;;18.00;99.90;;;;;;5071371;28;20283;-52
2023/09/05 01:39:23;;;;;;;2.25;2.03;;;18.00;99.90;;;;;;5070664;28;20679;-53
2023/09/05 01:41:51;;;;;;;2.35;2.20;;;18.00;99.90;;;;;;5054705;28;20246;-52
2023/09/05 01:44:19;;;;;;;2.20;2.10;;;18.00;99.90;;;;;;5071240;28;20232;-54
2023/09/05 01:46:47;;;;;;;1.95;1.85;;;18.00;99.90;;;;;;5071090;28;20275;-54
2023/09/05 01:49:15;;;;;;;2.40;2.17;;;17.90;99.90;;;;;;5071513;28;20197;-54
2023/09/05 01:51:43;;;;;;;3.47;1.83;;;17.90;99.90;;;;;;5071014;28;20231;-58
2023/09/05 01:54:11;;;;;;;4.18;2.03;;;17.90;99.90;;;;;;5071196;28;20804;-52
2023/09/05 01:56:40;;;;;;;2.78;2.30;;;17.90;99.90;;;;;;5071197;28;20229;-51
2023/09/05 01:59:08;;;;;;;3.75;2.50;;;17.80;99.90;;;;;;5071429;28;20262;-52
2023/09/05 02:01:36;;;;;;;2.65;2.10;;;17.80;99.90;;;;;;5071148;28;20283;-52
2023/09/05 02:04:04;;;;;;;2.65;2.15;;;17.80;99.90;;;;;;5071201;28;20220;-53
2023/09/05 02:06:31;;;;;;;2.33;2.20;;;17.80;99.90;;;;;;5070689;28;20248;-54
2023/09/05 02:08:59;;;;;;;7.03;2.30;;;17.80;99.90;;;;;;5071565;28;20201;-55
2023/09/05 02:11:27;;;;;;;2.40;2.20;;;17.80;99.90;;;;;;5071052;28;20240;-54
2023/09/05 02:13:56;;;;;;;4.18;1.85;;;17.70;99.90;;;;;;5071123;28;20271;-52
2023/09/05 02:16:24;;;;;;;3.22;2.00;;;17.70;99.90;;;;;;5070915;28;20197;-52
2023/09/05 02:18:53;;;;;;;5.43;2.38;;;17.70;99.90;;;;;;5070925;28;20620;-52
2023/09/05 02:21:21;;;;;;;4.32;2.00;;;17.70;99.90;;;;;;5071150;28;20232;-52
2023/09/05 02:23:49;;;;;;;5.15;2.28;;;17.70;99.90;;;;;;5071072;28;20324;-51
2023/09/05 02:26:17;;;;;;;2.40;2.20;;;17.70;99.90;;;;;;5070531;28;20304;-52
2023/09/05 02:28:45;;;;;;;2.47;2.17;;;17.70;99.90;;;;;;5070984;28;20281;-52
2023/09/05 02:31:15;;;;;;;5.00;1.67;;;17.70;99.90;;;;;;5070787;28;20205;-52
2023/09/05 02:33:43;;;;;;;3.00;2.17;;;17.70;99.90;;;;;;5070381;28;20231;-52
2023/09/05 02:36:15;;;;;;;5.20;1.95;;;17.70;99.90;;;;;;5070751;28;20249;-52
2023/09/05 02:38:43;;;;;;;2.40;2.13;;;17.60;99.90;;;;;;5072847;28;20663;-52
2023/09/05 02:41:12;;;;;;;2.70;2.15;;;17.60;99.90;;;;;;5074373;28;20288;-53
2023/09/05 02:43:40;;;;;;;2.28;2.17;;;17.60;99.90;;;;;;5074331;28;20315;-55
2023/09/05 02:46:08;;;;;;;3.90;2.53;;;17.60;99.90;;;;;;5073853;28;20812;-53
2023/09/05 02:48:39;;;;;;;5.32;2.60;;;17.60;99.90;;;;;;5074586;28;20284;-52
2023/09/05 02:51:07;;;;;;;4.82;2.20;;;17.60;99.90;;;;;;5074294;28;20668;-55
2023/09/05 02:53:35;;;;;;;2.65;2.45;;;17.50;99.90;;;;;;5074304;28;20282;-52
2023/09/05 02:56:03;;;;;;;2.22;2.03;;;17.50;99.90;;;;;;5074003;28;20201;-55
2023/09/05 02:58:31;;;;;;;2.40;2.20;;;17.50;99.90;;;;;;5074236;28;20201;-54
2023/09/05 03:01:00;;;;;;;6.60;2.30;;;17.50;99.90;;;;;;5074417;28;20204;-53
2023/09/05 03:03:28;;;;;;;3.17;1.98;;;17.50;99.90;;;;;;5074267;28;20249;-52
2023/09/05 03:05:57;;;;;;;6.03;2.40;;;17.50;99.90;;;;;;5073824;28;20224;-52
2023/09/05 03:08:25;;;;;;;4.00;2.08;;;17.40;99.90;;;;;;5074200;28;20228;-52
2023/09/05 03:10:53;;;;;;;3.13;2.13;;;17.40;99.90;;;;;;5074144;28;20204;-56
2023/09/05 03:13:21;;;;;;;3.10;2.08;;;17.40;99.90;;;;;;5073639;28;20240;-55
2023/09/05 03:15:52;;;;;;;2.75;1.85;;;17.40;99.90;;;;;;5074044;28;20208;-52
2023/09/05 03:18:20;;;;;;;4.03;2.33;;;17.30;99.90;;;;;;5073891;28;20205;-53
2023/09/05 03:20:48;;;;;;;3.35;2.28;;;17.30;99.90;;;;;;5074078;28;20205;-52
2023/09/05 03:23:18;;;;;;;4.50;2.40;;;17.20;99.90;;;;;;5073628;28;20785;-52
2023/09/05 03:25:45;;;;;;;2.22;2.03;;;17.20;99.90;;;;;;5073291;28;20252;-55
2023/09/05 03:28:13;;;;;;;4.43;2.15;;;17.20;99.90;;;;;;5073870;28;20232;-52
2023/09/05 03:30:41;;;;;;;3.63;1.90;;;17.20;99.90;;;;;;5073819;28;20288;-52
2023/09/05 03:33:10;;;;;;;2.70;1.92;;;17.20;99.90;;;;;;5073354;28;20289;-52
2023/09/05 03:35:38;;;;;;;4.28;2.15;;;17.10;99.90;;;;;;5073485;28;20326;-55
2023/09/05 03:38:06;;;;;;;2.40;2.20;;;17.10;99.90;;;;;;5073281;28;20307;-52
2023/09/05 03:40:35;;;;;;;1.98;1.77;;;17.10;99.90;;;;;;5073867;28;20593;-52
2023/09/05 03:43:03;;;;;;;4.32;2.33;;;17.10;99.90;;;;;;5073395;28;20566;-52
2023/09/05 03:45:31;;;;;;;2.88;2.00;;;17.10;99.90;;;;;;5073312;28;20262;-52
2023/09/05 03:48:00;;;;;;;2.90;2.33;;;17.10;99.90;;;;;;5073225;28;20225;-52
2023/09/05 03:50:29;;;;;;;2.53;2.40;;;17.10;99.90;;;;;;5073112;28;20201;-53
2023/09/05 03:52:57;;;;;;;4.13;2.10;;;17.10;99.90;;;;;;5072884;28;20286;-52
2023/09/05 03:55:25;;;;;;;2.47;2.28;;;17.00;99.90;;;;;;5072985;28;20628;-53
2023/09/05 03:57:54;;;;;;;8.07;1.98;;;17.00;99.90;;;;;;5056987;28;20225;-52
2023/09/05 04:00:22;;;;;;;3.58;2.30;;;17.00;99.90;;;;;;5073159;28;20205;-52
2023/09/05 04:02:50;;;;;;;2.42;2.22;;;17.10;99.90;;;;;;5072944;28;20252;-53
2023/09/05 04:05:18;;;;;;;2.80;2.20;;;17.00;99.90;;;;;;5072704;28;20207;-52
2023/09/05 04:07:46;;;;;;;3.10;2.10;;;17.00;99.90;;;;;;5072828;28;20278;-52
2023/09/05 04:10:14;;;;;;;4.32;2.15;;;17.10;99.90;;;;;;5073091;28;20209;-53
2023/09/05 04:12:42;;;;;;;2.45;2.25;;;17.00;99.90;;;;;;5072751;28;20209;-52
2023/09/05 04:15:11;;;;;;;2.38;2.08;;;17.00;99.90;;;;;;5071057;28;20699;-52
2023/09/05 04:17:40;;;;;;;3.13;2.00;;;17.00;99.90;;;;;;5070976;28;20294;-53
2023/09/05 04:20:09;;;;;;;4.00;2.10;;;17.00;99.90;;;;;;5070409;28;20201;-52
2023/09/05 04:22:37;;;;;;;4.40;2.08;;;16.90;99.90;;;;;;5067533;28;20809;-53
2023/09/05 04:25:06;;;;;;;2.30;2.15;;;16.90;99.90;;;;;;5070883;28;20212;-52
2023/09/05 04:27:34;;;;;;;7.03;2.80;;;16.80;99.90;;;;;;5065192;28;20315;-52
2023/09/05 04:30:03;;;;;;;4.45;2.10;;;16.80;99.90;;;;;;5070212;28;20638;-52
2023/09/05 04:32:32;;;;;;;2.38;2.17;;;16.80;99.90;;;;;;5071875;28;20243;-52
2023/09/05 04:35:01;;;;;;;2.17;1.98;;;16.80;99.90;;;;;;5072272;28;20236;-53
2023/09/05 04:37:29;;;;;;;2.45;2.25;;;16.70;99.90;;;;;;5072228;28;20225;-52
2023/09/05 04:39:56;;;;;;;4.70;2.28;;;16.80;99.90;;;;;;5072317;28;20236;-52
2023/09/05 04:42:25;;;;;;;4.70;2.15;;;16.70;99.90;;;;;;5070141;28;20201;-52
2023/09/05 04:44:53;;;;;;;5.43;2.67;;;16.70;99.90;;;;;;5050292;22;20326;-54
2023/09/05 04:47:22;;;;;;;3.25;2.30;;;16.70;99.90;;;;;;5032223;28;20230;-54
2023/09/05 04:49:53;;;;;;;4.82;2.30;;;16.70;99.90;;;;;;5032278;28;20209;-53
2023/09/05 04:52:22;;;;;;;2.45;2.17;;;16.70;99.90;;;;;;5032225;28;20226;-52
2023/09/05 04:54:50;;;;;;;2.60;2.40;;;16.60;99.90;;;;;;5020287;28;20227;-52
2023/09/05 04:57:18;;;;;;;3.63;2.65;;;16.60;99.90;;;;;;5027391;28;20581;-53
2023/09/05 04:59:48;;;;;;;3.33;2.53;;;16.60;99.90;;;;;;5015938;28;20208;-53
2023/09/05 05:02:16;;;;;;;5.45;1.88;;;16.60;99.90;;;;;;5023915;28;20206;-54
2023/09/05 05:04:44;;;;;;;4.18;2.25;;;16.60;99.90;;;;;;5022378;28;20222;-53
2023/09/05 05:07:13;;;;;;;3.95;2.38;;;16.50;99.90;;;;;;5017381;28;20254;-53
2023/09/05 05:09:41;;;;;;;2.78;2.42;;;16.50;99.90;;;;;;5028255;28;20645;-55
2023/09/05 05:12:09;;;;;;;8.18;2.40;;;16.50;99.90;;;;;;5015901;28;20210;-53
2023/09/05 05:14:37;;;;;;;3.53;2.47;;;16.50;99.90;;;;;;5021708;28;20239;-54
2023/09/05 05:17:06;;;;;;;2.35;2.15;;;16.50;99.90;;;;;;5025515;28;20398;-52
2023/09/05 05:19:34;;;;;;;3.90;2.17;;;16.50;99.90;;;;;;5015343;28;20242;-53
2023/09/05 05:22:02;;;;;;;2.80;2.55;;;16.60;99.90;;;;;;5026559;28;20273;-52
2023/09/05 05:24:31;;;;;;;3.35;2.25;;;16.60;99.90;;;;;;5020325;28;20279;-54
2023/09/05 05:26:59;;;;;;;4.10;2.63;;;16.70;99.90;;;;;;5018685;28;20638;-52
2023/09/05 05:29:31;;;;;;;4.13;2.53;;;16.70;99.90;;;;;;5028176;28;20241;-54
2023/09/05 05:32:00;;;;;;;5.45;2.25;;;16.80;99.90;;;;;;5016248;28;20206;-57
2023/09/05 05:34:28;;;;;;;3.92;2.70;;;16.80;99.90;;;;;;5031222;28;20261;-57
2023/09/05 05:36:55;;;;;;;6.53;3.00;;;16.80;99.90;;;;;;5018790;28;20230;-58
2023/09/05 05:39:25;;;;;;;2.70;2.33;;;16.90;99.90;;;;;;5027841;28;20237;-57
2023/09/05 05:41:54;;;;;;;8.52;2.75;;;16.90;99.90;;;;;;4997924;28;20679;-58
2023/09/05 05:44:22;;;;;;;2.65;2.25;;;16.90;99.90;;;;;;5022811;28;20238;-58
2023/09/05 05:46:50;;;;;;;4.85;2.50;;;16.90;99.90;;;;;;5022630;28;20210;-58
2023/09/05 05:49:18;;;;;;;3.60;2.72;;;17.00;99.90;;;;;;5015893;28;20250;-59
2023/09/05 05:51:46;;;;;;;4.68;2.40;;;17.00;99.90;;;;;;5027802;28;20388;-57
2023/09/05 05:54:14;;;;;;;6.63;2.33;;;17.00;99.90;;;;;;5011032;28;20227;-58
2023/09/05 05:56:41;;;;;;;2.65;2.45;;;17.00;99.90;;;;;;5021379;28;20234;-57
2023/09/05 05:59:11;;;;;;;6.45;2.33;;;17.10;99.90;;;;;;5016659;28;20204;-56
2023/09/05 06:01:39;;;;;;;2.58;2.28;;;17.10;99.90;;;;;;5023038;28;20226;-58
2023/09/05 06:04:07;;;;;;;4.75;2.33;;;17.10;99.90;;;;;;5025050;28;20599;-57
2023/09/05 06:06:36;;;;;;;2.42;2.28;;;17.20;99.90;;;;;;5020319;28;20610;-57
2023/09/05 06:09:04;;;;;;;2.70;2.17;;;17.20;99.90;;;;;;5017948;28;20211;-57
2023/09/05 06:11:32;;;;;;;2.90;1.90;;;17.30;99.90;;;;;;5027348;28;20284;-58
2023/09/05 06:14:00;;;;;;;4.78;2.38;;;17.30;99.90;;;;;;5019968;28;20226;-57
2023/09/05 06:16:29;;;;;;;4.15;2.08;;;17.40;99.90;;;;;;5025924;28;20211;-58
2023/09/05 06:18:57;;;;;;;2.67;2.22;;;17.40;99.90;;;;;;5027697;28;20198;-58
2023/09/05 06:21:25;;;;;;;7.43;2.22;;;17.50;99.90;;;;;;5018841;28;20241;-57
2023/09/05 06:23:53;;;;;;;4.32;1.98;;;17.60;99.90;;;;;;5002747;28;20807;-57
2023/09/05 06:26:21;;;;;;;6.68;1.95;;;17.60;99.90;;;;;;5027163;28;20230;-58
2023/09/05 06:28:49;;;;;;;2.80;2.47;;;17.70;99.90;;;;;;5025906;28;20300;-58
2023/09/05 06:31:17;;;;;;;2.65;2.35;;;17.80;99.90;;;;;;5019803;28;20203;-56
2023/09/05 06:33:46;;;;;;;3.15;2.20;;;17.80;99.90;;;;;;5033667;28;20252;-58
2023/09/05 06:36:14;;;;;;;2.13;2.03;;;17.90;99.90;;;;;;5027812;28;20237;-57
2023/09/05 06:38:42;;;;;;;5.53;2.40;;;18.00;99.90;;;;;;5025226;28;20202;-56
2023/09/05 06:41:11;;;;;;;2.08;1.90;;;18.10;99.90;;;;;;5019952;28;20206;-57
2023/09/05 06:43:42;;;;;;;2.17;1.98;;;18.10;99.90;;;;;;5029228;28;20229;-57
2023/09/05 06:46:10;;;;;;;2.03;1.92;;;18.20;99.90;;;;;;5020677;28;20236;-56
2023/09/05 06:48:39;;;;;;;2.88;2.03;;;18.30;99.90;;;;;;5024212;28;20723;-57
2023/09/05 06:51:09;;;;;;;2.17;1.88;;;18.40;99.90;;;;;;5028365;28;20734;-56
2023/09/05 06:53:37;;;;;;;2.53;2.33;;;18.50;99.90;;;;;;5017257;28;20226;-57
2023/09/05 06:56:05;;;;;;;3.25;2.03;;;18.60;99.90;;;;;;5027631;28;20210;-57
2023/09/05 06:58:33;;;;;;;6.07;2.25;;;18.70;99.90;;;;;;5023777;28;20237;-57
2023/09/05 07:01:05;;;;;;;1.92;1.83;;;18.80;99.90;;;;;;5021422;28;20203;-57
2023/09/05 07:03:33;;;;;;;2.03;1.92;;;18.90;99.90;;;;;;5030498;28;20771;-56
2023/09/05 07:06:02;;;;;;;2.80;1.90;;;19.00;99.90;;;;;;5019067;28;20220;-57
2023/09/05 07:08:35;;;;;;;1.95;1.85;;;19.10;99.90;;;;;;5024403;28;20222;-57
2023/09/05 07:11:04;;;;;;;2.13;1.90;;;19.20;99.90;;;;;;5013694;28;20202;-58
2023/09/05 07:13:32;;;;;;;4.32;2.13;;;19.30;99.90;;;;;;5014133;28;20293;-56
2023/09/05 07:16:00;;;;;;;2.85;1.90;;;19.40;99.90;;;;;;5019178;28;20230;-57
2023/09/05 07:18:27;;;;;;;2.28;1.80;;;19.50;99.90;;;;;;5022396;28;20202;-56
2023/09/05 07:20:56;;;;;;;3.08;2.13;;;19.60;99.90;;;;;;5020287;28;20202;-58
2023/09/05 07:23:24;;;;;;;2.10;2.00;;;19.70;99.90;;;;;;5026106;28;20231;-58
2023/09/05 07:25:54;;;;;;;2.17;1.98;;;19.80;99.90;;;;;;5029904;28;20203;-58
2023/09/05 07:28:22;;;;;;;3.70;2.10;;;19.90;99.90;;;;;;5021195;28;20592;-56
2023/09/05 07:30:49;;;;;;;1.60;1.52;;;19.90;99.90;;;;;;5022212;28;20649;-58
2023/09/05 07:33:17;;;;;;;3.90;2.28;;;20.00;99.90;;;;;;5028700;28;20253;-59
2023/09/05 07:35:45;;;;;;;3.08;1.88;;;20.10;99.90;;;;;;5028898;28;20206;-59
2023/09/05 07:38:15;;;;;;;3.58;2.13;;;20.20;99.90;;;;;;5020052;28;20209;-57
2023/09/05 07:40:43;;;;;;;1.88;1.77;;;20.30;99.90;;;;;;5022961;28;20756;-59
2023/09/05 07:43:12;;;;;;;3.00;1.92;;;20.30;99.90;;;;;;5027970;28;20301;-59
2023/09/05 07:45:40;;;;;;;3.78;1.95;;;20.40;99.90;;;;;;5016931;28;20744;-60
2023/09/05 07:48:08;;;;;;;6.43;1.80;;;20.50;99.90;;;;;;5027204;28;20205;-58
2023/09/05 07:50:36;;;;;;;3.70;2.10;;;20.60;99.90;;;;;;5022759;28;20256;-59
2023/09/05 07:53:04;;;;;;;2.35;1.90;;;20.70;99.90;;;;;;5017873;28;20253;-59
2023/09/05 07:55:32;;;;;;;4.50;1.90;;;20.70;99.90;;;;;;5029814;28;20206;-60
2023/09/05 07:58:00;;;;;;;2.47;1.85;;;20.80;99.90;;;;;;5017587;28;20206;-59
2023/09/05 08:00:29;;;;;;;5.35;2.08;;;20.90;99.90;;;;;;5024081;28;20261;-60
2023/09/05 08:02:58;;;;;;;2.15;2.05;;;20.90;99.90;;;;;;5025510;28;20736;-60
2023/09/05 08:05:26;;;;;;;5.25;2.08;;;21.00;99.90;;;;;;5016510;28;20207;-61
2023/09/05 08:07:54;;;;;;;2.17;1.98;;;21.00;99.90;;;;;;5029110;28;20290;-60
2023/09/05 08:10:22;;;;;;;2.42;2.05;;;21.10;99.90;;;;;;5020811;28;20229;-61
2023/09/05 08:12:50;;;;;;;4.20;2.30;;;21.10;99.90;;;;;;5021375;28;20207;-59
2023/09/05 08:15:18;;;;;;;4.07;2.10;;;21.20;99.90;;;;;;5027952;28;20309;-60
2023/09/05 08:17:48;;;;;;;2.78;1.73;;;21.30;99.90;;;;;;5016411;28;20637;-59
2023/09/05 08:20:17;;;;;;;2.80;1.95;;;21.40;99.90;;;;;;5026067;28;20289;-59
2023/09/05 08:22:46;;;;;;;5.53;2.00;;;21.60;99.90;;;;;;5023635;28;20210;-59
2023/09/05 08:25:15;;;;;;;3.65;2.00;;;21.60;99.90;;;;;;5017630;28;20246;-59
2023/09/05 08:27:43;;;;;;;1.73;1.63;;;21.80;99.90;;;;;;5027536;28;20703;-60
2023/09/05 08:30:13;;;;;;;3.33;1.75;;;21.80;99.90;;;;;;5018468;28;20233;-60
2023/09/05 08:32:42;;;;;;;3.92;1.77;;;21.90;99.90;;;;;;5022052;28;20700;-58
2023/09/05 08:35:12;;;;;;;4.30;2.30;;;22.00;99.90;;;;;;5016086;28;20261;-58
2023/09/05 08:37:40;;;;;;;7.53;2.17;;;22.10;99.90;;;;;;5011842;28;20238;-60
2023/09/05 08:40:09;;;;;;;3.78;2.08;;;22.20;99.90;;;;;;5018010;28;20283;-58
2023/09/05 08:42:38;;;;;;;5.88;2.15;;;22.20;99.90;;;;;;5011543;28;20261;-58
2023/09/05 08:45:08;;;;;;;2.35;1.75;;;22.30;99.90;;;;;;5015515;28;20234;-56
2023/09/05 08:47:36;;;;;;;4.07;1.85;;;22.40;99.90;;;;;;5011391;28;20285;-59
2023/09/05 08:50:05;;;;;;;3.75;1.80;;;22.50;99.90;;;;;;5011142;28;20641;-57
2023/09/05 08:52:36;;;;;;;2.45;1.98;;;22.60;99.90;;;;;;5009780;28;20243;-57
2023/09/05 08:55:04;;;;;;;2.20;1.98;;;22.80;99.90;;;;;;5010734;28;20262;-59
2023/09/05 08:57:32;;;;;;;2.30;2.10;;;22.90;99.90;;;;;;5010788;28;20570;-57
2023/09/05 09:00:01;;;;;;;2.85;1.92;;;23.00;99.90;;;;;;5011637;28;20239;-57
2023/09/05 09:02:29;;;;;;;2.35;1.88;;;23.20;99.90;;;;;;5011967;28;20276;-57
2023/09/05 09:04:57;;;;;;;2.53;1.85;;;23.30;99.90;;;;;;5010726;28;20226;-57
2023/09/05 09:07:27;;;;;;;2.35;1.83;;;23.40;99.90;;;;;;5011007;28;20261;-57
2023/09/05 09:09:56;;;;;;;2.00;1.90;;;23.50;99.90;;;;;;5004188;28;20293;-57
2023/09/05 09:12:28;;;;;;;2.95;2.28;;;23.60;99.90;;;;;;5018156;28;20198;-57
2023/09/05 09:14:56;;;;;;;1.90;1.80;;;23.70;99.90;;;;;;5017597;28;20226;-58
2023/09/05 09:17:25;;;;;;;2.70;2.00;;;23.80;99.90;;;;;;5026589;28;20210;-56
2023/09/05 09:19:53;;;;;;;2.22;1.58;;;23.90;99.90;;;;;;4997961;28;20198;-59
2023/09/05 09:22:24;;;;;;;1.63;1.52;;;24.10;99.90;;;;;;5022316;28;20685;-57
2023/09/05 09:24:52;;;;;;;1.80;1.70;;;24.20;99.90;;;;;;5023069;28;20309;-57
2023/09/05 09:27:22;;;;;;;5.28;2.00;;;24.40;99.90;;;;;;5015938;28;20203;-56
2023/09/05 09:29:53;;;;;;;1.67;1.67;;;24.50;99.90;;;;;;4999403;28;20272;-57
2023/09/05 09:32:22;;;;;;;2.38;1.70;;;24.70;99.90;;;;;;5023760;28;20206;-58
2023/09/05 09:34:51;;;;;;;2.03;1.90;;;24.80;99.90;;;;;;5023789;28;20646;-56
2023/09/05 09:37:24;;;;;;;2.17;2.03;;;25.00;99.90;;;;;;5016119;28;20203;-58
2023/09/05 09:39:57;;;;;;;3.28;1.90;;;25.20;99.90;;;;;;4999313;28;20628;-58
2023/09/05 09:42:27;;;;;;;2.97;1.70;;;25.40;99.90;;;;;;5023221;28;20260;-59
2023/09/05 09:44:55;;;;;;;1.55;1.45;;;25.60;99.90;;;;;;5023148;28;20284;-57
2023/09/05 09:47:24;;;;;;;1.80;1.67;;;25.70;99.90;;;;;;5014979;28;20563;-58
2023/09/05 09:49:52;;;;;;;2.28;2.05;;;25.80;99.90;;;;;;4999179;28;20231;-57
2023/09/05 09:52:21;;;;;;;3.03;2.10;;;26.00;99.90;;;;;;5023645;28;20264;-58
2023/09/05 09:54:51;;;;;;;1.83;1.73;;;26.10;99.90;;;;;;5022636;28;20222;-57
2023/09/05 09:57:22;;;;;;;2.75;1.60;;;26.20;99.90;;;;;;5015603;28;20662;-58
2023/09/05 10:00:15;;;;;;;2.20;1.77;;;26.10;99.90;;;;;;5003665;28;20194;-58
2023/09/05 10:02:44;;;;;;;2.65;1.63;;;26.40;99.90;;;;;;5020600;28;20658;-58
2023/09/05 10:05:12;;;;;;;3.17;1.85;;;26.70;99.90;;;;;;5025604;28;20222;-57
2023/09/05 10:07:40;;;;;;;3.63;1.67;;;27.00;99.90;;;;;;5014379;28;20269;-58
2023/09/05 10:10:09;;;;;;;2.33;1.75;;;27.20;99.90;;;;;;5025604;28;20276;-58
2023/09/05 10:12:37;;;;;;;1.85;1.73;;;27.30;99.90;;;;;;5020929;28;20662;-58
2023/09/05 10:15:06;;;;;;;2.47;2.00;;;27.40;99.90;;;;;;5017472;28;20219;-58
2023/09/05 10:17:35;;;;;;;1.75;1.33;;;27.60;99.90;;;;;;5027306;28;20206;-58
2023/09/05 10:20:05;;;;;;;1.38;1.38;;;27.70;99.90;;;;;;5016476;28;20588;-59
2023/09/05 10:22:34;;;;;;;2.05;1.58;;;28.10;99.90;;;;;;5021644;28;20674;-58
2023/09/05 10:25:02;;;;;;;2.03;1.92;;;28.40;99.90;;;;;;5024286;28;20257;-57
2023/09/05 10:27:29;;;;;;;2.58;1.63;;;28.60;99.90;;;;;;5014281;28;20282;-59
2023/09/05 10:29:57;;;;;;;2.50;1.60;;;28.60;99.90;;;;;;5026834;28;20280;-57
2023/09/05 10:32:25;;;;;;;1.48;1.38;;;28.80;99.90;;;;;;5019314;28;20248;-57
2023/09/05 10:35:02;;;;;;;1.80;1.55;;;29.00;99.90;;;;;;5030499;28;20268;-58
2023/09/05 10:37:58;;;;;;;1.98;1.88;;;29.30;99.90;;;;;;5014671;28;20202;-58
2023/09/05 10:40:33;;;;;;;1.70;1.60;;;29.50;99.90;;;;;;5013954;28;20333;-58
2023/09/05 10:43:02;;;;;;;2.40;1.60;;;29.60;99.90;;;;;;5017940;28;20205;-59
2023/09/05 10:45:31;;;;;;;2.13;2.03;;;29.90;99.90;;;;;;5024553;22;20749;-60
2023/09/05 10:48:05;;;;;;;1.80;1.70;;;30.10;99.90;;;;;;5026168;28;20198;-60
2023/09/05 10:50:35;;;;;;;5.72;1.70;;;30.30;99.90;;;;;;5020466;28;20222;-60
2023/09/05 10:53:22;;;;;;;1.85;1.75;;;30.40;99.90;;;;;;5017148;28;20674;-60
2023/09/05 10:55:54;;;;;;;3.17;1.65;;;30.50;99.90;;;;;;4983383;28;20249;-60
2023/09/05 10:58:39;;;;;;;1.63;1.58;;;30.80;99.90;;;;;;5003436;28;20215;-60
2023/09/05 11:01:44;;;;;;;3.45;1.77;;;31.10;99.90;;;;;;5008960;28;20198;-60
2023/09/05 11:04:26;;;;;;;3.60;1.60;;;31.00;99.90;;;;;;4986156;28;20291;-60
2023/09/05 11:07:00;;;;;;;1.70;1.60;;;31.20;99.90;;;;;;5002652;28;20718;-60
2023/09/05 11:09:29;;;;;;;2.15;1.90;;;31.40;99.90;;;;;;5011141;28;20654;-60
2023/09/05 11:11:57;;;;;;;1.90;1.80;;;31.40;99.90;;;;;;4999102;28;20232;-60
2023/09/05 11:14:32;;;;;;;3.75;1.75;;;31.50;99.90;;;;;;5006248;28;20625;-60
2023/09/05 11:17:01;;;;;;;1.60;1.50;;;31.60;99.90;;;;;;5007543;28;20203;-60
2023/09/05 11:19:37;;;;;;;2.03;1.67;;;31.60;99.90;;;;;;4998190;28;20211;-60
2023/09/05 11:22:14;;;;;;;1.65;1.55;;;31.60;99.90;;;;;;5008981;28;20196;-60
2023/09/05 11:24:47;;;;;;;1.75;1.58;;;31.40;99.90;;;;;;5004551;28;20254;-60
2023/09/05 11:27:16;;;;;;;1.83;1.50;;;31.50;99.90;;;;;;4999556;28;20266;-60
2023/09/05 11:29:45;;;;;;;1.88;1.77;;;31.90;99.90;;;;;;5010829;28;20210;-60
2023/09/05 11:32:14;;;;;;;2.45;1.70;;;32.30;99.90;;;;;;5000827;28;20226;-60
2023/09/05 11:34:43;;;;;;;1.85;1.75;;;32.60;99.90;;;;;;5013851;28;20226;-60
2023/09/05 11:37:20;;;;;;;2.80;2.00;;;32.80;98.30;;;;;;4999771;28;20207;-60
2023/09/05 11:39:48;;;;;;;5.90;1.40;;;33.00;99.50;;;;;;5010645;28;20608;-60
2023/09/05 11:42:20;;;;;;;1.67;1.58;;;33.00;98.50;;;;;;5001292;28;20226;-60
2023/09/05 11:44:48;;;;;;;1.70;1.60;;;33.20;98.50;;;;;;5002481;28;20231;-60
2023/09/05 11:47:16;;;;;;;2.45;1.70;;;32.80;96.80;;;;;;5009123;28;20286;-60
2023/09/05 11:49:44;;;;;;;3.15;1.60;;;32.60;97.20;;;;;;4997380;28;20207;-60
2023/09/05 11:52:12;;;;;;;1.60;1.50;;;32.60;98.20;;;;;;5007238;28;20306;-60
2023/09/05 11:54:42;;;;;;;1.50;1.50;;;32.80;98.90;;;;;;5004191;28;20261;-60
2023/09/05 11:57:10;;;;;;;2.17;1.73;;;32.90;96.00;;;;;;4999699;28;20203;-60
2023/09/05 11:59:39;;;;;;;3.72;1.65;;;33.20;97.40;;;;;;5010297;28;20230;-60
2023/09/05 12:02:09;;;;;;;2.00;1.48;;;33.40;96.60;;;;;;4999578;28;20203;-60
2023/09/05 12:04:37;;;;;;;2.03;1.83;;;33.70;96.70;;;;;;5003710;28;20294;-60
2023/09/05 12:07:06;;;;;;;1.52;1.52;;;34.10;96.20;;;;;;5007171;28;20695;-60
2023/09/05 12:09:34;;;;;;;3.47;1.50;;;34.30;95.90;;;;;;4996963;28;20207;-60
2023/09/05 12:12:13;;;;;;;4.72;1.63;;;34.30;94.40;;;;;;5008484;28;20309;-60
2023/09/05 12:14:48;;;;;;;1.90;1.80;;;34.50;93.60;;;;;;5003650;28;20301;-60
2023/09/05 12:17:17;;;;;;;2.58;1.55;;;34.50;93.60;;;;;;4998350;28;20234;-60
2023/09/05 12:19:47;;;;;;;2.65;1.95;;;34.40;92.20;;;;;;5009991;28;20245;-60
2023/09/05 12:22:23;;;;;;;2.28;1.23;;;34.20;93.50;;;;;;5000195;28;20713;-59
2023/09/05 12:25:06;;;;;;;1.83;1.50;;;34.30;93.50;;;;;;4999308;28;20231;-60
2023/09/05 12:27:39;;;;;;;1.80;1.65;;;33.70;92.20;;;;;;4999423;28;20200;-59
2023/09/05 12:30:08;;;;;;;1.58;1.40;;;33.70;94.40;;;;;;4999082;28;20202;-59
2023/09/05 12:32:37;;;;;;;1.50;1.40;;;33.90;93.40;;;;;;5003216;28;20278;-61
2023/09/05 12:35:05;;;;;;;2.92;1.50;;;33.60;91.20;;;;;;5007454;28;20285;-62
2023/09/05 12:37:33;;;;;;;1.58;1.33;;;33.50;92.40;;;;;;4996192;28;20287;-62
2023/09/05 12:40:01;;;;;;;2.25;1.30;;;33.80;93.20;;;;;;5007861;28;20246;-60
2023/09/05 12:42:29;;;;;;;1.55;1.45;;;34.20;93.50;;;;;;5001758;28;20309;-61
2023/09/05 12:44:58;;;;;;;1.20;1.20;;;34.70;93.00;;;;;;4998245;28;20267;-61
2023/09/05 12:47:26;;;;;;;1.73;1.60;;;35.10;91.40;;;;;;5007217;28;20238;-62
2023/09/05 12:50:00;;;;;;;1.58;1.40;;;35.10;90.50;;;;;;4995920;28;20579;-61
2023/09/05 12:52:38;;;;;;;1.92;1.30;;;35.00;91.90;;;;;;5002892;28;20223;-62
2023/09/05 12:55:07;;;;;;;1.70;1.60;;;35.10;91.80;;;;;;5006231;28;20313;-61
2023/09/05 12:57:35;;;;;;;4.45;1.63;;;35.10;89.20;;;;;;4996203;28;20287;-61
2023/09/05 13:00:05;;;;;;;1.95;1.27;;;34.80;89.60;;;;;;5007589;28;20261;-61